createdAt,value
2023-04-26T00:04:41.667Z,96992.94
2023-04-26T00:09:35.308Z,96985.63
2023-04-26T00:14:28.718Z,96990.25
2023-04-26T00:19:22.110Z,97002.97
2023-04-26T00:24:16.862Z,97002.22
2023-04-26T00:29:10.149Z,97007.56
2023-04-26T00:34:03.448Z,97010.78
2023-04-26T00:38:56.798Z,97011.72
2023-04-26T00:43:51.509Z,97005.84
2023-04-26T00:48:45.424Z,97007.56
2023-04-26T00:53:41.493Z,97007.34
2023-04-26T00:58:35.021Z,97010.03
2023-04-26T01:03:30.417Z,97000.69
2023-04-26T01:08:25.555Z,97000.91
2023-04-26T01:13:19.327Z,96997.28
2023-04-26T01:18:12.681Z,97005.88
2023-04-26T01:23:07.477Z,97002.69
2023-04-26T01:28:00.758Z,97011.81
2023-04-26T01:32:54.408Z,97006.03
2023-04-26T01:37:47.694Z,97007.47
2023-04-26T01:42:42.325Z,97009.03
2023-04-26T01:47:35.733Z,97007.69
2023-04-26T01:52:29.116Z,97006.31
2023-04-26T01:57:22.392Z,97004.91
2023-04-26T02:02:18.913Z,97005.97
2023-04-26T02:07:12.258Z,97001.41
2023-04-26T02:12:05.671Z,97002.25
2023-04-26T02:16:58.959Z,96987.06
2023-04-26T02:21:58.910Z,96980.16
2023-04-26T02:26:53.088Z,96976.34
2023-04-26T02:31:48.755Z,96976.53
2023-04-26T02:36:42.128Z,96974.78
2023-04-26T02:41:36.796Z,96978.19
2023-04-26T02:46:30.146Z,96977.09
2023-04-26T02:51:23.534Z,96979.69
2023-04-26T02:56:17.029Z,96980.75
2023-04-26T03:01:12.567Z,96983.13
2023-04-26T03:06:06.548Z,96995.69
2023-04-26T03:10:59.933Z,96981.19
2023-04-26T03:15:53.712Z,96974.66
2023-04-26T03:20:49.544Z,96982.13
2023-04-26T03:25:42.826Z,96975.78
2023-04-26T03:30:36.181Z,96985.38
2023-04-26T03:35:29.488Z,96973.94
2023-04-26T03:40:24.142Z,96982.09
2023-04-26T03:45:17.705Z,96979.09
2023-04-26T03:50:11.969Z,96970.28
2023-04-26T03:55:06.013Z,96976.22
2023-04-26T04:00:00.742Z,96972.13
2023-04-26T04:04:54.179Z,96973.84
2023-04-26T04:09:47.678Z,96974.66
2023-04-26T04:14:41.033Z,96970.09
2023-04-26T04:19:35.916Z,96966.78
2023-04-26T04:24:29.812Z,96971.03
2023-04-26T04:29:23.324Z,96979.50
2023-04-26T04:34:17.281Z,96983.13
2023-04-26T04:39:16.167Z,96973.81
2023-04-26T04:44:09.558Z,96970.88
2023-04-26T04:49:03.228Z,96973.75
2023-04-26T04:53:56.877Z,96980.50
2023-04-26T04:58:51.747Z,96979.41
2023-04-26T05:03:45.381Z,96974.19
2023-04-26T05:08:38.859Z,96982.66
2023-04-26T05:13:32.114Z,96980.34
2023-04-26T05:18:27.559Z,96985.88
2023-04-26T05:23:20.891Z,96987.03
2023-04-26T05:28:14.430Z,96990.00
2023-04-26T05:33:07.829Z,96988.78
2023-04-26T05:38:05.097Z,96990.09
2023-04-26T05:42:58.368Z,96982.41
2023-04-26T05:47:52.317Z,96979.09
2023-04-26T05:52:45.725Z,96996.84
2023-04-26T05:57:40.458Z,96995.94
2023-04-26T06:02:33.884Z,96986.16
2023-04-26T06:07:27.287Z,96988.78
2023-04-26T06:12:22.488Z,96991.16
2023-04-26T06:17:17.240Z,96997.03
2023-04-26T06:22:10.545Z,96998.50
2023-04-26T06:27:03.984Z,96992.50
2023-04-26T06:31:57.286Z,97003.44
2023-04-26T06:36:52.253Z,97008.84
2023-04-26T06:41:45.695Z,97006.28
2023-04-26T06:46:39.196Z,97011.31
2023-04-26T06:51:32.811Z,97017.38
2023-04-26T06:56:27.604Z,97031.38
2023-04-26T07:01:20.931Z,97031.25
2023-04-26T07:06:14.247Z,97039.22
2023-04-26T07:11:11.676Z,97039.56
2023-04-26T07:16:06.859Z,97051.72
2023-04-26T07:21:00.179Z,97053.94
2023-04-26T07:25:54.866Z,97054.94
2023-04-26T07:30:49.023Z,97049.09
2023-04-26T07:35:44.998Z,97048.06
2023-04-26T07:40:38.341Z,97038.00
2023-04-26T07:45:31.847Z,97023.16
2023-04-26T07:50:26.141Z,97033.41
2023-04-26T07:55:20.908Z,97029.97
2023-04-26T08:00:16.817Z,97028.19
2023-04-26T08:05:10.695Z,97035.81
2023-04-26T08:10:04.783Z,97032.38
2023-04-26T08:15:01.131Z,97035.25
2023-04-26T08:19:54.727Z,97040.69
2023-04-26T08:24:50.201Z,97039.69
2023-04-26T08:29:43.807Z,97045.06
2023-04-26T08:34:38.586Z,97038.16
2023-04-26T08:39:31.914Z,97041.00
2023-04-26T08:44:28.979Z,97046.13
2023-04-26T08:49:34.680Z,97045.84
2023-04-26T08:54:31.055Z,97052.56
2023-04-26T08:59:25.199Z,97060.09
2023-04-26T09:04:19.102Z,97055.56
2023-04-26T09:09:18.743Z,97062.63
2023-04-26T09:14:13.455Z,97054.84
2023-04-26T09:19:06.816Z,97053.66
2023-04-26T09:24:04.474Z,97054.47
2023-04-26T09:34:19.179Z,97044.09
2023-04-26T09:39:12.520Z,97042.38
2023-04-26T09:44:06.168Z,97038.28
2023-04-26T09:49:03.709Z,97028.47
2023-04-26T09:53:58.491Z,97026.44
2023-04-26T09:59:03.953Z,97022.22
2023-04-26T10:03:58.431Z,97016.91
2023-04-26T10:08:52.371Z,97029.03
2023-04-26T10:13:47.331Z,97018.66
2023-04-26T10:18:41.008Z,97022.97
2023-04-26T10:23:34.867Z,97024.06
2023-04-26T10:29:02.707Z,97017.72
2023-04-26T10:34:20.035Z,97009.41
2023-04-26T10:39:23.376Z,96988.91
2023-04-26T10:44:41.385Z,96985.50
2023-04-26T10:49:48.456Z,96986.03
2023-04-26T10:55:08.007Z,96969.31
2023-04-26T11:00:32.948Z,96968.19
2023-04-26T11:05:55.599Z,96962.56
2023-04-26T11:11:00.690Z,96956.16
2023-04-26T11:16:04.912Z,96942.44
2023-04-26T11:20:59.309Z,96938.97
2023-04-26T11:25:55.029Z,96910.34
2023-04-26T11:30:50.450Z,96931.44
2023-04-26T11:35:46.404Z,96939.22
2023-04-26T11:40:39.788Z,96939.63
2023-04-26T11:45:35.946Z,96921.31
2023-04-26T11:50:31.468Z,96918.50
2023-04-26T11:55:33.250Z,96937.00
2023-04-26T12:00:28.291Z,96937.50
2023-04-26T12:05:30.699Z,96919.50
2023-04-26T12:10:27.875Z,96930.91
2023-04-26T12:15:25.781Z,96923.56
2023-04-26T12:20:20.531Z,96929.97
2023-04-26T12:25:13.851Z,96934.09
2023-04-26T12:30:09.338Z,96940.06
2023-04-26T12:35:04.326Z,96924.13
2023-04-26T12:39:57.724Z,96933.41
2023-04-26T12:44:50.999Z,96915.09
2023-04-26T12:49:44.426Z,96906.34
2023-04-26T12:54:39.381Z,96917.56
2023-04-26T12:59:32.676Z,96896.75
2023-04-26T13:04:26.255Z,96902.88
2023-04-26T13:09:20.098Z,96883.03
2023-04-26T13:14:14.846Z,96888.28
2023-04-26T13:19:08.298Z,96897.88
2023-04-26T13:24:01.649Z,96899.41
2023-04-26T13:28:55.074Z,96893.16
2023-04-26T13:33:50.944Z,96876.75
2023-04-26T13:38:45.240Z,96879.00
2023-04-26T13:43:38.622Z,96870.66
2023-04-26T13:48:32.011Z,96859.69
2023-04-26T13:53:27.925Z,96854.28
2023-04-26T13:58:21.207Z,96850.66
2023-04-26T14:03:14.622Z,96834.44
2023-04-26T14:08:08.419Z,96850.97
2023-04-26T14:13:03.069Z,96857.50
2023-04-26T14:17:56.370Z,96847.44
2023-04-26T14:22:50.286Z,96838.06
2023-04-26T14:27:43.760Z,96839.84
2023-04-26T14:32:38.965Z,96838.44
2023-04-26T14:37:32.384Z,96837.88
2023-04-26T14:42:25.852Z,96828.88
2023-04-26T14:47:19.195Z,96833.75
2023-04-26T14:52:13.924Z,96851.34
2023-04-26T14:57:07.458Z,96860.63
2023-04-26T15:02:00.843Z,96870.38
2023-04-26T15:06:54.328Z,96862.88
2023-04-26T15:11:49.034Z,96858.16
2023-04-26T15:16:42.439Z,96857.31
2023-04-26T15:21:35.844Z,96856.91
2023-04-26T15:26:31.039Z,96861.91
2023-04-26T15:31:25.877Z,96861.78
2023-04-26T15:36:20.536Z,96849.44
2023-04-26T15:41:14.014Z,96857.06
2023-04-26T15:46:07.413Z,96863.47
2023-04-26T15:51:06.707Z,96851.66
2023-04-26T15:56:00.121Z,96839.31
2023-04-26T16:00:53.793Z,96847.66
2023-04-26T16:05:47.144Z,96839.19
2023-04-26T16:10:42.231Z,96827.66
2023-04-26T16:15:35.603Z,96824.47
2023-04-26T16:20:28.961Z,96834.31
2023-04-26T16:25:22.509Z,96831.41
2023-04-26T16:30:17.639Z,96842.09
2023-04-26T16:35:11.505Z,96848.19
2023-04-26T16:40:05.998Z,96834.44
2023-04-26T16:44:59.724Z,96829.31
2023-04-26T16:49:54.488Z,96829.88
2023-04-26T16:54:47.841Z,96850.13
2023-04-26T16:59:41.257Z,96835.44
2023-04-26T17:04:35.467Z,96852.47
2023-04-26T17:09:30.348Z,96861.19
2023-04-26T17:14:23.721Z,96847.59
2023-04-26T17:19:17.181Z,96849.81
2023-04-26T17:24:10.666Z,96850.34
2023-04-26T17:29:05.459Z,96859.47
2023-04-26T17:33:58.814Z,96859.31
2023-04-26T17:38:52.113Z,96861.31
2023-04-26T17:43:45.693Z,96870.72
2023-04-26T17:48:40.572Z,96878.06
2023-04-26T17:53:34.380Z,96871.28
2023-04-26T17:58:27.838Z,96904.75
2023-04-26T18:03:21.617Z,96901.69
2023-04-26T18:08:16.849Z,96893.63
2023-04-26T18:13:11.200Z,96891.56
2023-04-26T18:18:08.048Z,96891.09
2023-04-26T18:23:01.496Z,96896.91
2023-04-26T18:27:56.325Z,96905.91
2023-04-26T18:32:52.993Z,96913.34
2023-04-26T18:37:46.538Z,96909.97
2023-04-26T18:42:39.958Z,96924.41
2023-04-26T18:47:34.762Z,96917.63
2023-04-26T18:52:28.151Z,96919.28
2023-04-26T18:57:22.740Z,96923.53
2023-04-26T19:02:16.141Z,96935.09
2023-04-26T19:07:10.912Z,96939.66
2023-04-26T19:12:05.957Z,96946.34
2023-04-26T19:16:59.918Z,96957.75
2023-04-26T19:21:53.426Z,96959.34
2023-04-26T19:26:48.135Z,96961.22
2023-04-26T19:31:41.556Z,96962.06
2023-04-26T19:36:36.457Z,96965.16
2023-04-26T19:41:29.861Z,96966.59
2023-04-26T19:46:24.640Z,96970.69
2023-04-26T19:51:19.452Z,96981.31
2023-04-26T19:56:12.837Z,96984.63
2023-04-26T20:01:06.717Z,96990.13
2023-04-26T20:06:01.659Z,96988.00
2023-04-26T20:10:55.005Z,96985.47
2023-04-26T20:15:48.298Z,96985.13
2023-04-26T20:20:41.668Z,96992.41
2023-04-26T20:25:36.394Z,96995.38
2023-04-26T20:30:31.282Z,96997.06
2023-04-26T20:35:24.616Z,97002.78
2023-04-26T20:40:18.455Z,97003.28
2023-04-26T20:45:14.038Z,96997.56
2023-04-26T20:50:09.194Z,97006.88
2023-04-26T20:55:02.593Z,97014.47
2023-04-26T20:59:56.026Z,97015.69
2023-04-26T21:04:50.864Z,97012.59
2023-04-26T21:09:44.337Z,97017.38
2023-04-26T21:14:37.919Z,97007.19
2023-04-26T21:19:31.366Z,97010.44
2023-04-26T21:24:26.104Z,97019.38
2023-04-26T21:29:19.383Z,97026.91
2023-04-26T21:34:12.763Z,97018.56
2023-04-26T21:39:06.210Z,97023.31
2023-04-26T21:44:01.064Z,97023.09
2023-04-26T21:48:54.816Z,97021.19
2023-04-26T21:53:48.176Z,97022.84
2023-04-26T21:58:41.596Z,97026.78
2023-04-26T22:03:36.485Z,97019.97
2023-04-26T22:08:30.078Z,97023.03
2023-04-26T22:13:23.970Z,97029.94
2023-04-26T22:18:17.571Z,97031.66
2023-04-26T22:23:13.417Z,97035.25
2023-04-26T22:28:07.060Z,97031.88
2023-04-26T22:33:00.887Z,97036.78
2023-04-26T22:37:55.765Z,97043.66
2023-04-26T22:42:50.475Z,97045.94
2023-04-26T22:47:44.900Z,97055.97
2023-04-26T22:52:39.005Z,97064.28
2023-04-26T22:57:32.431Z,97065.00
2023-04-26T23:02:27.246Z,97060.97
2023-04-26T23:07:20.849Z,97060.91
2023-04-26T23:12:20.024Z,97042.94
2023-04-26T23:17:13.980Z,97040.16
2023-04-26T23:22:08.737Z,97046.47
2023-04-26T23:27:02.783Z,97034.91
2023-04-26T23:31:56.395Z,97038.47
2023-04-26T23:36:49.909Z,97038.34
2023-04-26T23:41:44.755Z,97040.59
2023-04-26T23:46:38.237Z,97045.38
2023-04-26T23:51:32.387Z,97040.38
2023-04-26T23:56:25.832Z,97028.56
